sensor_id;sensor_type;location;lat;lon;timestamp;temperature;humidity
9271;DHT22;4673;53.458;9.940;2023-09-18T00:00:23;17.00;88.60
9271;DHT22;4673;53.458;9.940;2023-09-18T00:02:49;17.10;88.90
9271;DHT22;4673;53.458;9.940;2023-09-18T00:05:14;17.10;88.50
9271;DHT22;4673;53.458;9.940;2023-09-18T00:07:42;17.10;88.40
9271;DHT22;4673;53.458;9.940;2023-09-18T00:10:11;17.10;88.40
9271;DHT22;4673;53.458;9.940;2023-09-18T00:12:37;17.10;88.50
9271;DHT22;4673;53.458;9.940;2023-09-18T00:15:03;17.00;88.40
9271;DHT22;4673;53.458;9.940;2023-09-18T00:17:29;17.00;88.60
9271;DHT22;4673;53.458;9.940;2023-09-18T00:19:55;17.10;88.80
9271;DHT22;4673;53.458;9.940;2023-09-18T00:22:21;17.10;88.50
9271;DHT22;4673;53.458;9.940;2023-09-18T00:24:47;17.10;88.20
9271;DHT22;4673;53.458;9.940;2023-09-18T00:27:13;17.10;88.40
9271;DHT22;4673;53.458;9.940;2023-09-18T00:29:39;17.10;88.30
9271;DHT22;4673;53.458;9.940;2023-09-18T00:32:06;17.10;88.20
9271;DHT22;4673;53.458;9.940;2023-09-18T00:34:31;17.10;87.90
9271;DHT22;4673;53.458;9.940;2023-09-18T00:36:58;17.10;87.90
9271;DHT22;4673;53.458;9.940;2023-09-18T00:39:25;17.10;87.70
9271;DHT22;4673;53.458;9.940;2023-09-18T00:41:51;17.10;87.70
9271;DHT22;4673;53.458;9.940;2023-09-18T00:44:20;17.10;87.70
9271;DHT22;4673;53.458;9.940;2023-09-18T00:46:46;17.10;87.70
9271;DHT22;4673;53.458;9.940;2023-09-18T00:49:12;17.10;87.70
9271;DHT22;4673;53.458;9.940;2023-09-18T00:51:39;17.10;87.70
9271;DHT22;4673;53.458;9.940;2023-09-18T00:54:06;17.10;87.60
9271;DHT22;4673;53.458;9.940;2023-09-18T00:56:33;17.00;87.50
9271;DHT22;4673;53.458;9.940;2023-09-18T00:59:00;17.00;87.40
9271;DHT22;4673;53.458;9.940;2023-09-18T01:01:27;17.00;87.60
9271;DHT22;4673;53.458;9.940;2023-09-18T01:03:53;17.00;87.50
9271;DHT22;4673;53.458;9.940;2023-09-18T01:06:19;16.90;87.70
9271;DHT22;4673;53.458;9.940;2023-09-18T01:08:47;16.90;87.90
9271;DHT22;4673;53.458;9.940;2023-09-18T01:11:40;16.90;88.00
9271;DHT22;4673;53.458;9.940;2023-09-18T01:14:29;16.90;88.00
9271;DHT22;4673;53.458;9.940;2023-09-18T01:16:58;16.90;88.00
9271;DHT22;4673;53.458;9.940;2023-09-18T01:19:46;16.80;87.90
9271;DHT22;4673;53.458;9.940;2023-09-18T01:22:14;16.80;88.10
9271;DHT22;4673;53.458;9.940;2023-09-18T01:24:40;16.70;88.30
9271;DHT22;4673;53.458;9.940;2023-09-18T01:27:12;16.80;88.50
9271;DHT22;4673;53.458;9.940;2023-09-18T01:29:42;16.70;88.50
9271;DHT22;4673;53.458;9.940;2023-09-18T01:32:08;16.70;88.50
9271;DHT22;4673;53.458;9.940;2023-09-18T01:34:40;16.60;88.70
9271;DHT22;4673;53.458;9.940;2023-09-18T01:37:08;16.70;88.90
9271;DHT22;4673;53.458;9.940;2023-09-18T01:39:35;16.60;88.60
9271;DHT22;4673;53.458;9.940;2023-09-18T01:42:03;16.60;88.70
9271;DHT22;4673;53.458;9.940;2023-09-18T01:44:33;16.60;88.80
9271;DHT22;4673;53.458;9.940;2023-09-18T01:47:01;16.60;88.80
9271;DHT22;4673;53.458;9.940;2023-09-18T01:49:36;16.60;88.80
9271;DHT22;4673;53.458;9.940;2023-09-18T01:52:02;16.60;88.90
9271;DHT22;4673;53.458;9.940;2023-09-18T01:54:29;16.60;88.80
9271;DHT22;4673;53.458;9.940;2023-09-18T01:56:55;16.50;89.10
9271;DHT22;4673;53.458;9.940;2023-09-18T01:59:21;16.50;89.00
9271;DHT22;4673;53.458;9.940;2023-09-18T02:01:48;16.50;89.40
9271;DHT22;4673;53.458;9.940;2023-09-18T02:04:14;16.50;89.10
9271;DHT22;4673;53.458;9.940;2023-09-18T02:06:39;16.50;89.30
9271;DHT22;4673;53.458;9.940;2023-09-18T02:09:06;16.40;89.20
9271;DHT22;4673;53.458;9.940;2023-09-18T02:11:39;16.40;89.60
9271;DHT22;4673;53.458;9.940;2023-09-18T02:14:05;16.40;89.60
9271;DHT22;4673;53.458;9.940;2023-09-18T02:16:35;16.50;89.90
9271;DHT22;4673;53.458;9.940;2023-09-18T02:19:02;16.50;89.50
9271;DHT22;4673;53.458;9.940;2023-09-18T02:21:28;16.50;89.40
9271;DHT22;4673;53.458;9.940;2023-09-18T02:23:53;16.50;89.20
9271;DHT22;4673;53.458;9.940;2023-09-18T02:26:21;16.40;89.30
9271;DHT22;4673;53.458;9.940;2023-09-18T02:28:47;16.40;89.50
9271;DHT22;4673;53.458;9.940;2023-09-18T02:31:13;16.40;89.40
9271;DHT22;4673;53.458;9.940;2023-09-18T02:33:39;16.30;89.50
9271;DHT22;4673;53.458;9.940;2023-09-18T02:36:06;16.30;89.70
9271;DHT22;4673;53.458;9.940;2023-09-18T02:38:32;16.20;89.80
9271;DHT22;4673;53.458;9.940;2023-09-18T02:40:58;16.10;90.00
9271;DHT22;4673;53.458;9.940;2023-09-18T02:43:24;16.10;90.40
9271;DHT22;4673;53.458;9.940;2023-09-18T02:45:50;16.10;90.80
9271;DHT22;4673;53.458;9.940;2023-09-18T02:48:16;16.10;90.60
9271;DHT22;4673;53.458;9.940;2023-09-18T02:50:42;16.00;90.80
9271;DHT22;4673;53.458;9.940;2023-09-18T02:53:20;16.00;91.10
9271;DHT22;4673;53.458;9.940;2023-09-18T02:55:53;16.00;91.40
9271;DHT22;4673;53.458;9.940;2023-09-18T02:58:20;16.10;91.70
9271;DHT22;4673;53.458;9.940;2023-09-18T03:00:48;16.00;91.50
9271;DHT22;4673;53.458;9.940;2023-09-18T03:03:14;16.10;91.70
9271;DHT22;4673;53.458;9.940;2023-09-18T03:05:41;16.10;91.40
9271;DHT22;4673;53.458;9.940;2023-09-18T03:08:07;16.10;91.20
9271;DHT22;4673;53.458;9.940;2023-09-18T03:10:34;16.00;91.00
9271;DHT22;4673;53.458;9.940;2023-09-18T03:13:04;16.00;91.40
9271;DHT22;4673;53.458;9.940;2023-09-18T03:15:30;16.00;91.40
9271;DHT22;4673;53.458;9.940;2023-09-18T03:17:56;16.00;91.20
9271;DHT22;4673;53.458;9.940;2023-09-18T03:20:25;16.00;91.20
9271;DHT22;4673;53.458;9.940;2023-09-18T03:22:53;16.00;91.40
9271;DHT22;4673;53.458;9.940;2023-09-18T03:25:19;16.00;91.40
9271;DHT22;4673;53.458;9.940;2023-09-18T03:27:45;16.00;91.50
9271;DHT22;4673;53.458;9.940;2023-09-18T03:30:11;15.90;91.40
9271;DHT22;4673;53.458;9.940;2023-09-18T03:32:43;15.90;91.70
9271;DHT22;4673;53.458;9.940;2023-09-18T03:35:11;15.90;91.80
9271;DHT22;4673;53.458;9.940;2023-09-18T03:37:47;15.90;91.90
9271;DHT22;4673;53.458;9.940;2023-09-18T03:40:14;15.90;91.80
9271;DHT22;4673;53.458;9.940;2023-09-18T03:42:40;15.90;91.90
9271;DHT22;4673;53.458;9.940;2023-09-18T03:45:06;15.90;91.90
9271;DHT22;4673;53.458;9.940;2023-09-18T03:47:39;15.90;92.00
9271;DHT22;4673;53.458;9.940;2023-09-18T03:50:10;15.90;92.10
9271;DHT22;4673;53.458;9.940;2023-09-18T03:52:38;15.90;91.90
9271;DHT22;4673;53.458;9.940;2023-09-18T03:55:04;15.90;91.90
9271;DHT22;4673;53.458;9.940;2023-09-18T03:57:30;15.90;91.80
9271;DHT22;4673;53.458;9.940;2023-09-18T03:59:56;15.90;92.00
9271;DHT22;4673;53.458;9.940;2023-09-18T04:02:24;15.90;91.90
9271;DHT22;4673;53.458;9.940;2023-09-18T04:04:50;15.80;91.70
9271;DHT22;4673;53.458;9.940;2023-09-18T04:07:16;15.80;92.00
9271;DHT22;4673;53.458;9.940;2023-09-18T04:09:42;15.90;92.20
9271;DHT22;4673;53.458;9.940;2023-09-18T04:12:08;15.90;92.10
9271;DHT22;4673;53.458;9.940;2023-09-18T04:14:35;15.90;92.10
9271;DHT22;4673;53.458;9.940;2023-09-18T04:17:01;15.90;91.90
9271;DHT22;4673;53.458;9.940;2023-09-18T04:19:27;15.90;91.70
9271;DHT22;4673;53.458;9.940;2023-09-18T04:21:53;15.80;91.80
9271;DHT22;4673;53.458;9.940;2023-09-18T04:24:18;15.90;92.10
9271;DHT22;4673;53.458;9.940;2023-09-18T04:26:44;15.90;92.10
9271;DHT22;4673;53.458;9.940;2023-09-18T04:29:10;15.80;92.00
9271;DHT22;4673;53.458;9.940;2023-09-18T04:31:35;15.80;91.80
9271;DHT22;4673;53.458;9.940;2023-09-18T04:34:01;15.80;92.00
9271;DHT22;4673;53.458;9.940;2023-09-18T04:36:28;15.80;92.10
9271;DHT22;4673;53.458;9.940;2023-09-18T04:38:54;15.70;92.00
9271;DHT22;4673;53.458;9.940;2023-09-18T04:41:19;15.80;92.20
9271;DHT22;4673;53.458;9.940;2023-09-18T04:43:45;15.70;92.20
9271;DHT22;4673;53.458;9.940;2023-09-18T04:46:11;15.70;92.30
9271;DHT22;4673;53.458;9.940;2023-09-18T04:48:36;15.60;92.40
9271;DHT22;4673;53.458;9.940;2023-09-18T04:51:03;15.70;92.90
9271;DHT22;4673;53.458;9.940;2023-09-18T04:53:30;15.70;93.10
9271;DHT22;4673;53.458;9.940;2023-09-18T04:55:56;15.70;93.00
9271;DHT22;4673;53.458;9.940;2023-09-18T04:58:21;15.70;92.90
9271;DHT22;4673;53.458;9.940;2023-09-18T05:00:53;15.70;93.10
9271;DHT22;4673;53.458;9.940;2023-09-18T05:03:20;15.60;93.30
9271;DHT22;4673;53.458;9.940;2023-09-18T05:05:45;15.60;93.30
9271;DHT22;4673;53.458;9.940;2023-09-18T05:08:11;15.70;93.70
9271;DHT22;4673;53.458;9.940;2023-09-18T05:10:37;15.70;93.70
9271;DHT22;4673;53.458;9.940;2023-09-18T05:13:03;15.70;93.50
9271;DHT22;4673;53.458;9.940;2023-09-18T05:15:29;15.70;93.50
9271;DHT22;4673;53.458;9.940;2023-09-18T05:17:56;15.80;93.60
9271;DHT22;4673;53.458;9.940;2023-09-18T05:20:24;15.80;93.40
9271;DHT22;4673;53.458;9.940;2023-09-18T05:22:55;15.80;93.30
9271;DHT22;4673;53.458;9.940;2023-09-18T05:25:25;15.90;93.00
9271;DHT22;4673;53.458;9.940;2023-09-18T05:27:52;15.90;92.70
9271;DHT22;4673;53.458;9.940;2023-09-18T05:30:24;16.00;92.50
9271;DHT22;4673;53.458;9.940;2023-09-18T05:32:53;16.10;91.70
9271;DHT22;4673;53.458;9.940;2023-09-18T05:35:19;16.20;91.10
9271;DHT22;4673;53.458;9.940;2023-09-18T05:37:44;16.20;90.40
9271;DHT22;4673;53.458;9.940;2023-09-18T05:40:11;16.20;89.80
9271;DHT22;4673;53.458;9.940;2023-09-18T05:42:38;16.30;89.50
9271;DHT22;4673;53.458;9.940;2023-09-18T05:45:05;16.30;89.10
9271;DHT22;4673;53.458;9.940;2023-09-18T05:47:34;16.30;88.50
9271;DHT22;4673;53.458;9.940;2023-09-18T05:50:01;16.40;88.40
9271;DHT22;4673;53.458;9.940;2023-09-18T05:52:32;16.40;88.00
9271;DHT22;4673;53.458;9.940;2023-09-18T05:54:58;16.50;87.70
9271;DHT22;4673;53.458;9.940;2023-09-18T05:57:23;16.50;87.10
9271;DHT22;4673;53.458;9.940;2023-09-18T05:59:49;16.60;86.70
9271;DHT22;4673;53.458;9.940;2023-09-18T06:02:15;16.70;86.60
9271;DHT22;4673;53.458;9.940;2023-09-18T06:04:42;16.80;86.10
9271;DHT22;4673;53.458;9.940;2023-09-18T06:07:08;16.90;85.40
9271;DHT22;4673;53.458;9.940;2023-09-18T06:09:33;17.00;85.00
9271;DHT22;4673;53.458;9.940;2023-09-18T06:12:00;17.10;84.30
9271;DHT22;4673;53.458;9.940;2023-09-18T06:14:25;17.10;83.40
9271;DHT22;4673;53.458;9.940;2023-09-18T06:16:51;17.20;82.70
9271;DHT22;4673;53.458;9.940;2023-09-18T06:19:17;17.30;82.10
9271;DHT22;4673;53.458;9.940;2023-09-18T06:21:44;17.30;81.50
9271;DHT22;4673;53.458;9.940;2023-09-18T06:24:09;17.40;81.00
9271;DHT22;4673;53.458;9.940;2023-09-18T06:26:35;17.40;80.10
9271;DHT22;4673;53.458;9.940;2023-09-18T06:29:01;17.50;79.90
9271;DHT22;4673;53.458;9.940;2023-09-18T06:31:28;17.50;79.70
9271;DHT22;4673;53.458;9.940;2023-09-18T06:33:53;17.60;79.10
9271;DHT22;4673;53.458;9.940;2023-09-18T06:36:19;17.70;78.40
9271;DHT22;4673;53.458;9.940;2023-09-18T06:38:45;17.80;78.10
9271;DHT22;4673;53.458;9.940;2023-09-18T06:41:10;17.80;77.70
9271;DHT22;4673;53.458;9.940;2023-09-18T06:43:36;17.90;77.30
9271;DHT22;4673;53.458;9.940;2023-09-18T06:46:02;17.90;76.90
9271;DHT22;4673;53.458;9.940;2023-09-18T06:48:27;18.00;76.30
9271;DHT22;4673;53.458;9.940;2023-09-18T06:50:58;18.00;75.90
9271;DHT22;4673;53.458;9.940;2023-09-18T06:53:23;18.00;75.80
9271;DHT22;4673;53.458;9.940;2023-09-18T06:55:49;18.10;75.80
9271;DHT22;4673;53.458;9.940;2023-09-18T06:58:15;18.10;75.50
9271;DHT22;4673;53.458;9.940;2023-09-18T07:00:40;18.20;75.10
9271;DHT22;4673;53.458;9.940;2023-09-18T07:03:06;18.30;74.30
9271;DHT22;4673;53.458;9.940;2023-09-18T07:05:31;18.40;73.80
9271;DHT22;4673;53.458;9.940;2023-09-18T07:07:57;18.50;73.70
9271;DHT22;4673;53.458;9.940;2023-09-18T07:10:23;18.60;73.30
9271;DHT22;4673;53.458;9.940;2023-09-18T07:12:49;18.70;72.60
9271;DHT22;4673;53.458;9.940;2023-09-18T07:15:14;18.80;72.00
9271;DHT22;4673;53.458;9.940;2023-09-18T07:17:40;19.00;71.60
9271;DHT22;4673;53.458;9.940;2023-09-18T07:20:06;19.20;70.70
9271;DHT22;4673;53.458;9.940;2023-09-18T07:22:44;19.30;70.10
9271;DHT22;4673;53.458;9.940;2023-09-18T07:25:10;19.40;68.80
9271;DHT22;4673;53.458;9.940;2023-09-18T07:27:36;19.60;68.50
9271;DHT22;4673;53.458;9.940;2023-09-18T07:30:04;19.70;67.20
9271;DHT22;4673;53.458;9.940;2023-09-18T07:32:30;19.80;66.60
9271;DHT22;4673;53.458;9.940;2023-09-18T07:34:56;19.80;66.60
9271;DHT22;4673;53.458;9.940;2023-09-18T07:37:21;19.90;66.40
9271;DHT22;4673;53.458;9.940;2023-09-18T07:39:49;20.00;65.90
9271;DHT22;4673;53.458;9.940;2023-09-18T07:42:14;20.20;65.30
9271;DHT22;4673;53.458;9.940;2023-09-18T07:44:40;20.30;64.20
9271;DHT22;4673;53.458;9.940;2023-09-18T07:47:05;20.40;63.90
9271;DHT22;4673;53.458;9.940;2023-09-18T07:49:31;20.50;63.50
9271;DHT22;4673;53.458;9.940;2023-09-18T07:51:57;20.60;62.90
9271;DHT22;4673;53.458;9.940;2023-09-18T07:54:22;20.70;62.10
9271;DHT22;4673;53.458;9.940;2023-09-18T07:56:48;20.70;62.00
9271;DHT22;4673;53.458;9.940;2023-09-18T07:59:14;20.80;61.80
9271;DHT22;4673;53.458;9.940;2023-09-18T08:01:41;20.70;61.90
9271;DHT22;4673;53.458;9.940;2023-09-18T08:04:06;20.60;61.90
9271;DHT22;4673;53.458;9.940;2023-09-18T08:06:32;20.70;62.10
9271;DHT22;4673;53.458;9.940;2023-09-18T08:08:58;20.70;62.30
9271;DHT22;4673;53.458;9.940;2023-09-18T08:11:23;20.80;61.70
9271;DHT22;4673;53.458;9.940;2023-09-18T08:13:49;20.80;61.90
9271;DHT22;4673;53.458;9.940;2023-09-18T08:16:15;20.80;62.20
9271;DHT22;4673;53.458;9.940;2023-09-18T08:18:42;20.80;62.00
9271;DHT22;4673;53.458;9.940;2023-09-18T08:21:08;20.80;62.10
9271;DHT22;4673;53.458;9.940;2023-09-18T08:23:35;20.80;62.20
9271;DHT22;4673;53.458;9.940;2023-09-18T08:26:01;20.80;62.50
9271;DHT22;4673;53.458;9.940;2023-09-18T08:28:29;20.80;62.60
9271;DHT22;4673;53.458;9.940;2023-09-18T08:30:55;20.80;62.60
9271;DHT22;4673;53.458;9.940;2023-09-18T08:33:20;20.80;63.00
9271;DHT22;4673;53.458;9.940;2023-09-18T08:35:46;20.80;62.90
9271;DHT22;4673;53.458;9.940;2023-09-18T08:38:13;20.90;63.20
9271;DHT22;4673;53.458;9.940;2023-09-18T08:40:41;21.00;62.80
9271;DHT22;4673;53.458;9.940;2023-09-18T08:43:08;21.10;62.90
9271;DHT22;4673;53.458;9.940;2023-09-18T08:45:43;21.10;62.60
9271;DHT22;4673;53.458;9.940;2023-09-18T08:48:11;21.20;62.90
9271;DHT22;4673;53.458;9.940;2023-09-18T08:50:38;21.20;62.40
9271;DHT22;4673;53.458;9.940;2023-09-18T08:53:04;21.20;62.20
9271;DHT22;4673;53.458;9.940;2023-09-18T08:55:30;21.30;62.30
9271;DHT22;4673;53.458;9.940;2023-09-18T08:57:58;21.30;61.90
9271;DHT22;4673;53.458;9.940;2023-09-18T09:00:25;21.40;61.70
9271;DHT22;4673;53.458;9.940;2023-09-18T09:02:51;21.50;61.50
9271;DHT22;4673;53.458;9.940;2023-09-18T09:05:20;21.50;61.20
9271;DHT22;4673;53.458;9.940;2023-09-18T09:07:46;21.60;61.10
9271;DHT22;4673;53.458;9.940;2023-09-18T09:10:11;21.60;60.70
9271;DHT22;4673;53.458;9.940;2023-09-18T09:15:25;22.00;60.50
9271;DHT22;4673;53.458;9.940;2023-09-18T09:17:52;22.10;59.70
9271;DHT22;4673;53.458;9.940;2023-09-18T09:20:26;22.30;59.60
9271;DHT22;4673;53.458;9.940;2023-09-18T09:22:52;22.60;58.00
9271;DHT22;4673;53.458;9.940;2023-09-18T09:25:27;22.90;57.60
9271;DHT22;4673;53.458;9.940;2023-09-18T09:27:54;23.20;56.50
9271;DHT22;4673;53.458;9.940;2023-09-18T09:30:22;23.40;54.90
9271;DHT22;4673;53.458;9.940;2023-09-18T09:32:50;23.60;53.20
9271;DHT22;4673;53.458;9.940;2023-09-18T09:35:26;23.80;52.30
9271;DHT22;4673;53.458;9.940;2023-09-18T09:37:59;23.90;51.30
9271;DHT22;4673;53.458;9.940;2023-09-18T09:40:28;23.90;50.60
9271;DHT22;4673;53.458;9.940;2023-09-18T09:42:56;24.00;49.80
9271;DHT22;4673;53.458;9.940;2023-09-18T09:45:31;24.00;49.60
9271;DHT22;4673;53.458;9.940;2023-09-18T09:48:06;24.20;48.90
9271;DHT22;4673;53.458;9.940;2023-09-18T09:50:33;24.30;48.50
9271;DHT22;4673;53.458;9.940;2023-09-18T09:52:59;24.30;48.10
9271;DHT22;4673;53.458;9.940;2023-09-18T09:55:30;24.30;47.70
9271;DHT22;4673;53.458;9.940;2023-09-18T09:58:03;24.30;47.50
9271;DHT22;4673;53.458;9.940;2023-09-18T10:00:43;24.40;46.70
9271;DHT22;4673;53.458;9.940;2023-09-18T10:03:12;24.40;45.90
9271;DHT22;4673;53.458;9.940;2023-09-18T10:05:46;24.40;46.30
9271;DHT22;4673;53.458;9.940;2023-09-18T10:08:24;24.30;45.70
9271;DHT22;4673;53.458;9.940;2023-09-18T10:11:08;24.20;46.10
9271;DHT22;4673;53.458;9.940;2023-09-18T10:13:59;24.00;46.70
9271;DHT22;4673;53.458;9.940;2023-09-18T10:16:26;24.00;46.80
9271;DHT22;4673;53.458;9.940;2023-09-18T10:19:21;24.00;47.30
9271;DHT22;4673;53.458;9.940;2023-09-18T10:22:11;24.00;47.00
9271;DHT22;4673;53.458;9.940;2023-09-18T10:24:44;24.00;46.90
9271;DHT22;4673;53.458;9.940;2023-09-18T10:27:13;24.20;47.00
9271;DHT22;4673;53.458;9.940;2023-09-18T10:29:41;24.30;46.70
9271;DHT22;4673;53.458;9.940;2023-09-18T10:32:08;24.40;46.70
9271;DHT22;4673;53.458;9.940;2023-09-18T10:34:34;24.40;46.60
9271;DHT22;4673;53.458;9.940;2023-09-18T10:37:03;24.40;46.50
9271;DHT22;4673;53.458;9.940;2023-09-18T10:39:36;24.50;46.60
9271;DHT22;4673;53.458;9.940;2023-09-18T10:42:02;24.60;45.80
9271;DHT22;4673;53.458;9.940;2023-09-18T10:44:29;24.60;45.40
9271;DHT22;4673;53.458;9.940;2023-09-18T10:46:57;24.70;45.80
9271;DHT22;4673;53.458;9.940;2023-09-18T10:49:24;24.70;46.00
9271;DHT22;4673;53.458;9.940;2023-09-18T10:51:54;25.00;46.10
9271;DHT22;4673;53.458;9.940;2023-09-18T10:54:23;25.30;44.90
9271;DHT22;4673;53.458;9.940;2023-09-18T10:56:50;25.60;43.20
9271;DHT22;4673;53.458;9.940;2023-09-18T10:59:16;25.70;41.90
9271;DHT22;4673;53.458;9.940;2023-09-18T11:01:42;25.60;42.00
9271;DHT22;4673;53.458;9.940;2023-09-18T11:04:08;25.60;42.00
9271;DHT22;4673;53.458;9.940;2023-09-18T11:09:43;25.80;41.10
9271;DHT22;4673;53.458;9.940;2023-09-18T11:12:10;25.80;40.50
9271;DHT22;4673;53.458;9.940;2023-09-18T11:14:56;25.70;40.80
9271;DHT22;4673;53.458;9.940;2023-09-18T11:17:39;25.40;41.20
9271;DHT22;4673;53.458;9.940;2023-09-18T11:20:29;25.20;42.50
9271;DHT22;4673;53.458;9.940;2023-09-18T11:28:02;25.50;41.80
9271;DHT22;4673;53.458;9.940;2023-09-18T11:30:28;25.50;40.70
9271;DHT22;4673;53.458;9.940;2023-09-18T11:32:55;25.50;40.10
9271;DHT22;4673;53.458;9.940;2023-09-18T11:35:21;25.40;40.40
9271;DHT22;4673;53.458;9.940;2023-09-18T11:38:06;25.30;40.10
9271;DHT22;4673;53.458;9.940;2023-09-18T11:40:34;25.40;40.70
9271;DHT22;4673;53.458;9.940;2023-09-18T11:43:27;25.40;40.50
9271;DHT22;4673;53.458;9.940;2023-09-18T11:45:57;25.40;40.20
9271;DHT22;4673;53.458;9.940;2023-09-18T11:48:25;25.30;40.20
9271;DHT22;4673;53.458;9.940;2023-09-18T11:50:53;25.10;40.20
9271;DHT22;4673;53.458;9.940;2023-09-18T11:53:20;25.10;40.50
9271;DHT22;4673;53.458;9.940;2023-09-18T11:55:46;25.30;40.50
9271;DHT22;4673;53.458;9.940;2023-09-18T11:58:13;25.30;40.50
9271;DHT22;4673;53.458;9.940;2023-09-18T12:00:39;25.30;39.90
9271;DHT22;4673;53.458;9.940;2023-09-18T12:03:24;25.40;40.10
9271;DHT22;4673;53.458;9.940;2023-09-18T12:05:53;25.40;40.70
9271;DHT22;4673;53.458;9.940;2023-09-18T12:08:21;25.50;40.00
9271;DHT22;4673;53.458;9.940;2023-09-18T12:10:49;25.60;39.00
9271;DHT22;4673;53.458;9.940;2023-09-18T12:13:15;25.60;39.10
9271;DHT22;4673;53.458;9.940;2023-09-18T12:15:41;25.60;38.90
9271;DHT22;4673;53.458;9.940;2023-09-18T12:18:10;25.50;38.70
9271;DHT22;4673;53.458;9.940;2023-09-18T12:20:44;25.50;38.50
9271;DHT22;4673;53.458;9.940;2023-09-18T12:23:09;25.60;38.90
9271;DHT22;4673;53.458;9.940;2023-09-18T12:25:35;25.60;39.00
9271;DHT22;4673;53.458;9.940;2023-09-18T12:28:01;25.70;38.10
9271;DHT22;4673;53.458;9.940;2023-09-18T12:30:29;25.80;38.30
9271;DHT22;4673;53.458;9.940;2023-09-18T12:32:59;25.80;38.20
9271;DHT22;4673;53.458;9.940;2023-09-18T12:35:29;25.60;38.30
9271;DHT22;4673;53.458;9.940;2023-09-18T12:37:59;25.50;38.00
9271;DHT22;4673;53.458;9.940;2023-09-18T12:40:28;25.60;38.50
9271;DHT22;4673;53.458;9.940;2023-09-18T12:42:56;25.60;37.60
9271;DHT22;4673;53.458;9.940;2023-09-18T12:45:23;25.70;38.10
9271;DHT22;4673;53.458;9.940;2023-09-18T12:47:50;25.80;37.60
9271;DHT22;4673;53.458;9.940;2023-09-18T12:50:16;25.80;37.50
9271;DHT22;4673;53.458;9.940;2023-09-18T12:52:42;25.80;37.30
9271;DHT22;4673;53.458;9.940;2023-09-18T12:55:08;25.80;36.30
9271;DHT22;4673;53.458;9.940;2023-09-18T12:57:34;25.90;37.00
9271;DHT22;4673;53.458;9.940;2023-09-18T13:00:08;26.10;37.40
9271;DHT22;4673;53.458;9.940;2023-09-18T13:02:37;26.20;35.70
9271;DHT22;4673;53.458;9.940;2023-09-18T13:05:03;26.00;36.40
9271;DHT22;4673;53.458;9.940;2023-09-18T13:07:29;26.00;36.00
9271;DHT22;4673;53.458;9.940;2023-09-18T13:10:05;26.00;35.90
9271;DHT22;4673;53.458;9.940;2023-09-18T13:12:52;26.00;36.20
9271;DHT22;4673;53.458;9.940;2023-09-18T13:15:27;25.90;35.10
9271;DHT22;4673;53.458;9.940;2023-09-18T13:17:54;25.80;35.20
9271;DHT22;4673;53.458;9.940;2023-09-18T13:20:25;25.80;35.40
9271;DHT22;4673;53.458;9.940;2023-09-18T13:22:53;25.70;36.00
9271;DHT22;4673;53.458;9.940;2023-09-18T13:25:30;25.40;35.60
9271;DHT22;4673;53.458;9.940;2023-09-18T13:27:57;25.10;36.50
9271;DHT22;4673;53.458;9.940;2023-09-18T13:30:23;24.90;37.90
9271;DHT22;4673;53.458;9.940;2023-09-18T13:32:49;24.70;38.30
9271;DHT22;4673;53.458;9.940;2023-09-18T13:35:16;24.60;39.10
9271;DHT22;4673;53.458;9.940;2023-09-18T13:37:42;24.50;38.60
9271;DHT22;4673;53.458;9.940;2023-09-18T13:40:09;24.40;39.70
9271;DHT22;4673;53.458;9.940;2023-09-18T13:42:36;24.40;40.20
9271;DHT22;4673;53.458;9.940;2023-09-18T13:45:04;24.30;40.10
9271;DHT22;4673;53.458;9.940;2023-09-18T13:47:32;24.40;40.60
9271;DHT22;4673;53.458;9.940;2023-09-18T13:49:58;24.40;40.50
9271;DHT22;4673;53.458;9.940;2023-09-18T13:52:35;24.50;40.60
9271;DHT22;4673;53.458;9.940;2023-09-18T13:55:05;24.50;40.70
9271;DHT22;4673;53.458;9.940;2023-09-18T13:57:32;24.50;40.70
9271;DHT22;4673;53.458;9.940;2023-09-18T14:00:00;24.50;41.10
9271;DHT22;4673;53.458;9.940;2023-09-18T14:02:26;24.40;41.20
9271;DHT22;4673;53.458;9.940;2023-09-18T14:04:55;24.50;41.20
9271;DHT22;4673;53.458;9.940;2023-09-18T14:07:21;24.30;41.40
9271;DHT22;4673;53.458;9.940;2023-09-18T14:09:47;24.20;41.10
9271;DHT22;4673;53.458;9.940;2023-09-18T14:12:14;24.10;41.90
9271;DHT22;4673;53.458;9.940;2023-09-18T14:14:41;24.00;42.50
9271;DHT22;4673;53.458;9.940;2023-09-18T14:17:11;24.00;43.00
9271;DHT22;4673;53.458;9.940;2023-09-18T14:19:36;24.00;43.40
9271;DHT22;4673;53.458;9.940;2023-09-18T14:22:06;24.10;43.10
9271;DHT22;4673;53.458;9.940;2023-09-18T14:24:32;24.20;43.10
9271;DHT22;4673;53.458;9.940;2023-09-18T14:27:03;24.30;43.40
9271;DHT22;4673;53.458;9.940;2023-09-18T14:29:29;24.30;43.10
9271;DHT22;4673;53.458;9.940;2023-09-18T14:31:59;24.30;43.10
9271;DHT22;4673;53.458;9.940;2023-09-18T14:34:25;24.50;43.20
9271;DHT22;4673;53.458;9.940;2023-09-18T14:36:51;24.50;42.30
9271;DHT22;4673;53.458;9.940;2023-09-18T14:39:17;24.60;40.90
9271;DHT22;4673;53.458;9.940;2023-09-18T14:41:43;24.70;40.20
9271;DHT22;4673;53.458;9.940;2023-09-18T14:44:09;24.70;39.20
9271;DHT22;4673;53.458;9.940;2023-09-18T14:46:36;24.50;38.90
9271;DHT22;4673;53.458;9.940;2023-09-18T14:49:03;24.40;40.00
9271;DHT22;4673;53.458;9.940;2023-09-18T14:51:30;24.20;40.10
9271;DHT22;4673;53.458;9.940;2023-09-18T14:53:56;24.10;40.80
9271;DHT22;4673;53.458;9.940;2023-09-18T14:56:23;24.00;41.50
9271;DHT22;4673;53.458;9.940;2023-09-18T14:58:49;23.80;42.20
9271;DHT22;4673;53.458;9.940;2023-09-18T15:01:17;23.80;42.40
9271;DHT22;4673;53.458;9.940;2023-09-18T15:03:43;23.60;42.40
9271;DHT22;4673;53.458;9.940;2023-09-18T15:06:10;23.60;42.40
9271;DHT22;4673;53.458;9.940;2023-09-18T15:08:36;23.60;42.80
9271;DHT22;4673;53.458;9.940;2023-09-18T15:11:03;23.60;43.50
9271;DHT22;4673;53.458;9.940;2023-09-18T15:13:32;23.60;42.90
9271;DHT22;4673;53.458;9.940;2023-09-18T15:16:00;23.60;43.50
9271;DHT22;4673;53.458;9.940;2023-09-18T15:18:26;23.60;43.60
9271;DHT22;4673;53.458;9.940;2023-09-18T15:20:52;23.70;43.80
9271;DHT22;4673;53.458;9.940;2023-09-18T15:23:21;23.70;42.90
9271;DHT22;4673;53.458;9.940;2023-09-18T15:25:49;23.70;42.70
9271;DHT22;4673;53.458;9.940;2023-09-18T15:28:16;23.70;43.10
9271;DHT22;4673;53.458;9.940;2023-09-18T15:30:45;23.70;43.30
9271;DHT22;4673;53.458;9.940;2023-09-18T15:33:11;23.80;43.70
9271;DHT22;4673;53.458;9.940;2023-09-18T15:35:37;23.90;43.70
9271;DHT22;4673;53.458;9.940;2023-09-18T15:38:03;23.90;42.60
9271;DHT22;4673;53.458;9.940;2023-09-18T15:40:29;23.90;42.40
9271;DHT22;4673;53.458;9.940;2023-09-18T15:42:55;23.90;42.10
9271;DHT22;4673;53.458;9.940;2023-09-18T15:45:21;23.80;42.00
9271;DHT22;4673;53.458;9.940;2023-09-18T15:47:46;23.80;42.30
9271;DHT22;4673;53.458;9.940;2023-09-18T15:50:13;23.80;42.60
9271;DHT22;4673;53.458;9.940;2023-09-18T15:52:39;23.80;42.70
9271;DHT22;4673;53.458;9.940;2023-09-18T15:55:08;23.80;42.80
9271;DHT22;4673;53.458;9.940;2023-09-18T15:57:36;23.70;42.40
9271;DHT22;4673;53.458;9.940;2023-09-18T16:00:04;23.60;42.40
9271;DHT22;4673;53.458;9.940;2023-09-18T16:02:34;23.60;42.90
9271;DHT22;4673;53.458;9.940;2023-09-18T16:05:00;23.60;43.30
9271;DHT22;4673;53.458;9.940;2023-09-18T16:07:26;23.50;42.50
9271;DHT22;4673;53.458;9.940;2023-09-18T16:09:53;23.40;42.60
9271;DHT22;4673;53.458;9.940;2023-09-18T16:12:20;23.30;42.60
9271;DHT22;4673;53.458;9.940;2023-09-18T16:14:46;23.30;42.90
9271;DHT22;4673;53.458;9.940;2023-09-18T16:17:12;23.20;42.90